x

Ne Bahamas - 350 Nm Ene Of Nassau, Bahamas (41047) Wave Buoy

9:50am - Thu 2nd Jul 2015 All times are UTC.

  • Sig Wave height 4.3ft
  • Swell Direction
  • Peak Period 9s
  • Average Period 6s
  • Wind
    9mph, 13mph gusts
  • Sea Temp 83°f
  • Air Temp 82°f
  • Sea Pressure 1020.6mb

More Historic Weather Station data

Upgrade to MSW Pro to gain access to the past 30 days of data for over 8000 Wavebouys and Weather Stations around the globe.

Join Pro

Comparision Forecast

View Surf forecast
   
Thu 07/02 9:50am 4.5ft 9s 6s 9 13 mph 1020.6mb 83f 82f
8:50am 4.5ft 9s 6s 9 11 mph 1020.8mb 83f 82f
7:50am 4.5ft 9s 6s 9 11 mph 1020.9mb 83f 82f
6:50am 4.5ft 9s 6s 9 11 mph 1021.4mb 83f 82f
5:50am 4.5ft 9s 6s 9 11 mph 1021.6mb 83f 82f
4:50am 4ft 8s 6s 11 13 mph 1021.8mb 83f 82f
3:50am 4.5ft 8s 6s 13
mph
1022mb 83f 82f
2:50am 4.5ft 8s 6s 13
mph
1022.1mb 84f 82f
1:50am 4.5ft 8s 6s 9 13 mph 1022.1mb 84f 83f
12:50am 4.5ft 9s 6s 9 11 mph 1021.6mb 84f 83f
Wed 07/01 11:50pm 4.5ft 8s 6s 11 13 mph 1021.2mb 84f 83f
10:50pm 4.5ft 8s 6s 9 11 mph 1021.1mb 84f 83f
9:50pm 4.5ft 8s 6s 7 9 mph 1021mb 85f 83f
8:50pm 4.5ft 8s 6s 7 9 mph 1021mb 85f 83f
7:50pm 4.5ft 9s 6s 7 9 mph 1021.2mb 85f 83f
6:50pm 4.5ft 8s 6s 4 7 mph 1021.7mb 85f 83f
5:50pm 4.5ft 7s 6s 4 7 mph 1022.3mb 84f 83f
4:50pm 4.5ft 7s 6s 7 9 mph 1022.7mb 84f 82f
3:50pm 4ft 8s 5s 9 11 mph 1023.1mb 84f 83f
2:50pm 5ft 6s 6s 11 13 mph 1023mb 83f 83f
1:50pm 5ft 6s 6s 11 13 mph 1022.9mb 83f 83f
12:50pm 5ft 6s 6s 11 13 mph 1022.8mb 83f 83f
11:50am 5.5ft 6s 6s 11 13 mph 1022.7mb 83f 83f
10:50am 5ft 7s 5s 9 11 mph 1022.6mb 83f 82f
9:50am 5.5ft 6s 5s 9 11 mph 1022.5mb 83f 82f
8:50am 5.5ft 6s 5s 9
mph
1022.2mb 83f 82f
7:50am 5.5ft 6s 5s 9 11 mph 1022mb 83f 82f
6:50am 6ft 6s 5s 13 18 mph 1021.9mb 83f 82f
5:50am 5ft 6s 5s 20 25 mph 1021.1mb 83f 83f
4:50am 4.5ft 8s 5s 20 25 mph 1021.1mb 83f 83f
3:50am 4.5ft 7s 5s 18 22 mph 1021.7mb 83f 83f
2:50am 4.5ft 7s 5s 18 20 mph 1022mb 83f 83f
1:50am 4.5ft 6s 5s 18 22 mph 1021.6mb 83f 83f
12:50am 4.5ft 5s 5s 13 16 mph 1022.1mb 84f 83f
Tue 06/30 11:50pm 4.5ft 8s 5s 13 16 mph 1021.9mb 84f 83f
10:50pm 4.5ft 8s 6s 11 13 mph 1021.8mb 84f 83f
9:50pm 4ft 8s 5s 4 7 mph 1021.9mb 84f 83f
8:50pm 4ft 8s 6s 4 7 mph 1022.1mb 84f 83f
7:50pm 4ft 7s 5s 4 7 mph 1022.5mb 84f 83f
6:50pm 4.5ft 8s 5s 7 9 mph 1022.9mb 84f 83f
5:50pm 4ft 8s 5s 9
mph
1023.2mb 84f 83f
4:50pm 4.5ft 8s 5s 11 13 mph 1023.6mb 83f 83f
3:50pm 4.5ft 8s 5s 18 20 mph 1023.6mb 83f 83f
2:50pm 4.5ft 8s 5s 16 18 mph 1023.5mb 83f 83f
1:50pm 5ft 8s 5s 18 20 mph 1023.5mb 83f 83f
12:50pm 5ft 8s 5s 20 25 mph 1022.4mb 83f 82f
11:50am 4.5ft 8s 5s 20 25 mph 1021.5mb 83f 82f
10:50am 4.5ft 7s 5s 18 22 mph 1020.9mb 83f 82f
9:50am 4.5ft 8s 6s 16 20 mph 1020.9mb 83f 82f
8:50am 4.5ft 7s 6s 16 18 mph 1020.6mb 83f 82f
7:50am 5ft 8s 6s 13 16 mph 1020.4mb 83f 81f
6:50am 5ft 5s 5s 9 11 mph 1021.1mb 83f 80f
5:50am 6ft 6s 5s 4
mph
1021.8mb 83f 80f
4:50am 5ft 5s 5s 9 11 mph 1022.8mb 83f 79f
3:50am 5ft 5s 5s 18 22 mph 1023.1mb 83f 79f
2:50am 5ft 7s 5s 27 31 mph 1023.7mb 83f 77f
1:50am 5ft 7s 5s 20 22 mph 1022.5mb 84f 83f
12:50am 5ft 8s 6s 18 22 mph 1021mb 84f 83f
Mon 06/29 11:50pm 4.5ft 8s 5s 16 20 mph 1019.7mb 84f 83f
10:50pm 4.5ft 8s 5s 13 16 mph 1020.4mb 84f 83f
9:50pm 4.5ft 8s 5s 13 16 mph 1020.4mb 84f 84f
8:50pm 4.5ft 8s 5s 13 18 mph 1020mb 84f 84f
7:50pm 4.5ft 8s 5s 18 20 mph 1020.5mb 84f 84f
6:50pm 4.5ft 7s 5s 13 18 mph 1020.8mb 84f 83f
5:50pm 4.5ft 8s 5s 16 18 mph 1021.3mb 84f 83f
4:50pm 4.5ft 8s 5s 16 20 mph 1021.4mb 84f 83f
3:50pm 4.5ft 8s 5s 13 18 mph 1021.4mb 84f 83f
2:50pm 4.5ft 8s 5s 16 18 mph 1021.3mb 84f 83f
1:50pm 4ft 9s 5s 16 20 mph 1020.9mb 83f 83f
12:50pm 4ft 8s 5s 18 22 mph 1020.6mb 83f 83f
11:50am 4ft 8s 5s 16 18 mph 1020.8mb 83f 83f
10:50am 4ft 8s 6s 11 13 mph 1020.6mb 83f 83f
9:50am 4ft 8s 5s 13 16 mph 1020.3mb 83f 82f
8:50am 4ft 8s 5s 13 16 mph 1020.1mb 83f 82f
7:50am 4ft 8s 5s 16 18 mph 1019.7mb 83f 82f
6:50am 4ft 9s 5s 16 18 mph 1019.7mb 84f 82f
5:50am 4ft 8s 5s 16 18 mph 1020.2mb 84f 83f
4:50am 4ft 8s 6s 13 18 mph 1021.1mb 84f 83f
3:50am 4ft 9s 6s 13 16 mph 1021.4mb 84f 83f
2:50am 3.5ft 8s 5s 11 13 mph 1021.7mb 84f 83f
1:50am 4ft 8s 6s 11 13 mph 1021.7mb 84f 83f
12:50am 4ft 8s 6s 9 11 mph 1021.3mb 84f 83f
Sun 06/28 11:50pm 4ft 8s 6s 9 11 mph 1020.9mb 84f 83f
10:50pm 4ft 8s 6s 11 13 mph 1020.4mb 84f 83f
9:50pm 4ft 8s 5s 11 13 mph 1020mb 84f 83f
8:50pm 4ft 9s 5s 13 16 mph 1020.1mb 84f 83f
7:50pm 4.5ft 8s 5s 16 18 mph 1020.1mb 84f 83f
6:50pm 4.5ft 8s 5s 11 16 mph 1020.4mb 84f 83f
5:50pm 4ft 8s 5s 13 16 mph 1020.6mb 84f 83f
4:50pm 4.5ft 8s 5s 13 16 mph 1021mb 84f 83f
3:50pm 4.5ft 8s 5s 16 18 mph 1020.8mb 84f 83f
2:50pm 4ft 8s 5s 16 18 mph 1021.2mb 84f 83f
1:50pm 4.5ft 8s 5s 13 16 mph 1021.1mb 84f 82f
12:50pm 4.5ft 8s 5s 13 16 mph 1020.9mb 83f 83f
11:50am 4.5ft 8s 5s 16 18 mph 1020.7mb 83f 83f